Yenbo, Saudi Arabia
Current Conditions -  °F | °C
As of 5:00 PM on Monday 22 Dec 2014 (Local Time) from OEYN Reporting Station
Scattered Clouds Scattered Clouds  
Wind Chill: 79°   Ceiling: Unl
Heat Index: 80°   Visibility: 6mi
Dew Point: 57°   Wind: 16mph
Humidity: 47%   Direction: 280°W
Pressure: 29.85"   Gusts: NA
Location:  24.15°N, 38.07°E
Report Text: OEYN 221400Z 28014KT 9999 FEW040 SCT090 26/14 Q1011 NOSIG
Loading
Personal Weather Stations






























Interactive Weather Map New forecast layout! Learn more

10-Day Weather Forecast

Advertisements
Track Severe Weather on mobile